createdAt,value
2018-06-02T00:01:22.159Z,3.97
2018-06-02T00:03:33.242Z,3.13
2018-06-02T00:05:44.295Z,4.20
2018-06-02T00:07:55.387Z,4.07
2018-06-02T00:10:06.552Z,3.67
2018-06-02T00:12:17.594Z,4.00
2018-06-02T00:14:28.801Z,3.80
2018-06-02T00:16:39.856Z,3.97
2018-06-02T00:18:51.026Z,3.30
2018-06-02T00:21:02.128Z,3.33
2018-06-02T00:23:13.176Z,3.80
2018-06-02T00:25:24.255Z,3.80
2018-06-02T00:27:35.333Z,3.80
2018-06-02T00:29:46.403Z,3.73
2018-06-02T00:31:57.538Z,4.00
2018-06-02T00:34:08.586Z,3.70
2018-06-02T00:36:19.695Z,3.37
2018-06-02T00:38:30.751Z,3.90
2018-06-02T00:40:41.838Z,3.57
2018-06-02T00:42:52.939Z,3.53
2018-06-02T00:45:03.979Z,4.10
2018-06-02T00:47:15.139Z,3.80
2018-06-02T00:49:26.211Z,4.07
2018-06-02T00:51:37.418Z,3.70
2018-06-02T00:53:48.546Z,3.90
2018-06-02T00:55:59.620Z,3.90
2018-06-02T00:58:10.691Z,3.73
2018-06-02T01:00:21.767Z,3.97
2018-06-02T01:02:32.855Z,3.50
2018-06-02T01:04:43.918Z,3.13
2018-06-02T01:06:55.197Z,3.63
2018-06-02T01:09:06.320Z,3.40
2018-06-02T01:11:17.455Z,3.87
2018-06-02T01:13:28.570Z,3.57
2018-06-02T01:15:39.616Z,3.50
2018-06-02T01:17:50.730Z,3.37
2018-06-02T01:20:01.835Z,3.93
2018-06-02T01:22:12.976Z,3.70
2018-06-02T01:24:24.046Z,3.77
2018-06-02T01:26:35.316Z,4.03
2018-06-02T01:28:46.443Z,3.73
2018-06-02T01:30:57.483Z,4.07
2018-06-02T01:33:08.560Z,3.27
2018-06-02T01:35:19.599Z,4.37
2018-06-02T01:37:30.762Z,3.77
2018-06-02T01:39:41.806Z,4.43
2018-06-02T01:41:52.909Z,4.27
2018-06-02T01:44:03.991Z,4.03
2018-06-02T01:46:15.174Z,4.03
2018-06-02T01:48:26.282Z,3.50
2018-06-02T01:50:37.386Z,4.40
2018-06-02T01:52:48.453Z,4.43
2018-06-02T01:54:59.516Z,3.70
2018-06-02T01:57:10.562Z,4.60
2018-06-02T01:59:21.664Z,4.30
2018-06-02T02:01:32.739Z,3.90
2018-06-02T02:03:43.831Z,4.37
2018-06-02T02:05:54.874Z,4.00
2018-06-02T02:08:05.972Z,3.70
2018-06-02T02:10:17.059Z,3.77
2018-06-02T02:12:28.091Z,4.23
2018-06-02T02:14:39.199Z,4.17
2018-06-02T02:16:50.298Z,4.17
2018-06-02T02:19:01.483Z,4.07
2018-06-02T02:21:12.568Z,2.90
2018-06-02T02:23:23.624Z,4.30
2018-06-02T02:25:34.714Z,3.80
2018-06-02T02:27:45.758Z,3.57
2018-06-02T02:29:56.963Z,4.03
2018-06-02T02:32:08.022Z,4.10
2018-06-02T02:34:19.111Z,3.63
2018-06-02T02:36:30.183Z,3.90
2018-06-02T02:38:41.247Z,4.50
2018-06-02T02:40:52.378Z,4.70
2018-06-02T02:43:03.423Z,3.60
2018-06-02T02:45:14.466Z,3.83
2018-06-02T02:47:25.678Z,4.27
2018-06-02T02:49:36.748Z,3.60
2018-06-02T02:51:47.878Z,3.67
2018-06-02T02:53:59.007Z,3.53
2018-06-02T02:56:10.123Z,4.17
2018-06-02T02:58:21.191Z,3.67
2018-06-02T03:00:32.234Z,4.40
2018-06-02T03:02:43.414Z,4.10
2018-06-02T03:04:54.460Z,4.50
2018-06-02T03:07:05.551Z,3.60
2018-06-02T03:09:16.642Z,3.80
2018-06-02T03:11:27.706Z,4.17
2018-06-02T03:13:38.803Z,4.27
2018-06-02T03:15:49.851Z,4.30
2018-06-02T03:18:01.011Z,3.87
2018-06-02T03:20:12.091Z,4.30
2018-06-02T03:22:23.205Z,4.10
2018-06-02T03:24:34.288Z,3.50
2018-06-02T03:26:45.411Z,2.97
2018-06-02T03:28:56.493Z,3.63
2018-06-02T03:31:07.588Z,3.80
2018-06-02T03:33:18.642Z,4.10
2018-06-02T03:35:29.701Z,4.17
2018-06-02T03:37:40.799Z,3.97
2018-06-02T03:39:51.846Z,4.23
2018-06-02T03:42:02.886Z,4.27
2018-06-02T03:44:13.951Z,3.40
2018-06-02T03:46:24.998Z,3.97
2018-06-02T03:48:36.042Z,4.53
2018-06-02T03:50:47.204Z,4.40
2018-06-02T03:52:58.266Z,4.17
2018-06-02T03:55:09.398Z,4.17
2018-06-02T03:57:20.443Z,4.53
2018-06-02T03:59:31.559Z,4.00
2018-06-02T04:01:42.623Z,4.00
2018-06-02T04:03:53.666Z,4.53
2018-06-02T04:06:04.758Z,3.80
2018-06-02T04:08:15.858Z,4.40
2018-06-02T04:10:26.974Z,3.70
2018-06-02T04:12:38.116Z,3.17
2018-06-02T04:14:49.279Z,3.43
2018-06-02T04:17:00.338Z,3.90
2018-06-02T04:19:11.395Z,3.57
2018-06-02T04:21:22.522Z,3.20
2018-06-02T04:23:33.623Z,3.40
2018-06-02T04:25:44.686Z,3.20
2018-06-02T04:27:55.756Z,3.33
2018-06-02T04:30:06.821Z,3.70
2018-06-02T04:32:17.947Z,4.17
2018-06-02T04:34:29.014Z,4.30
2018-06-02T04:36:40.106Z,4.30
2018-06-02T04:38:51.150Z,3.63
2018-06-02T04:41:02.213Z,4.50
2018-06-02T04:43:13.318Z,4.53
2018-06-02T04:45:24.378Z,3.67
2018-06-02T04:47:35.514Z,3.97
2018-06-02T04:49:46.573Z,4.20
2018-06-02T04:51:57.690Z,3.70
2018-06-02T04:54:08.759Z,3.97
2018-06-02T04:56:19.830Z,3.47
2018-06-02T04:58:30.917Z,3.33
2018-06-02T05:00:42.083Z,4.37
2018-06-02T05:02:53.254Z,4.03
2018-06-02T05:05:04.332Z,5.37
2018-06-02T05:07:15.400Z,4.37
2018-06-02T05:09:26.477Z,4.37
2018-06-02T05:11:37.534Z,4.70
2018-06-02T05:13:48.634Z,4.67
2018-06-02T05:15:59.702Z,4.90
2018-06-02T05:18:10.827Z,4.73
2018-06-02T05:20:21.878Z,4.23
2018-06-02T05:22:32.927Z,3.70
2018-06-02T05:24:44.046Z,4.90
2018-06-02T05:26:55.126Z,4.90
2018-06-02T05:29:06.259Z,4.43
2018-06-02T05:31:17.375Z,3.40
2018-06-02T05:33:28.422Z,4.80
2018-06-02T05:35:39.630Z,4.50
2018-06-02T05:37:50.722Z,4.60
2018-06-02T05:40:01.871Z,3.70
2018-06-02T05:42:12.931Z,4.80
2018-06-02T05:44:24.031Z,4.53
2018-06-02T05:46:35.103Z,3.90
2018-06-02T05:48:46.182Z,3.80
2018-06-02T05:50:57.327Z,3.30
2018-06-02T05:53:08.443Z,3.43
2018-06-02T05:55:19.596Z,4.07
2018-06-02T05:57:31.517Z,3.40
2018-06-02T05:59:45.166Z,3.97
2018-06-02T06:01:53.675Z,3.37
2018-06-02T06:04:04.711Z,3.67
2018-06-02T06:06:15.881Z,4.20
2018-06-02T06:08:26.951Z,4.13
2018-06-02T06:10:38.035Z,3.80
2018-06-02T06:12:49.111Z,3.73
2018-06-02T06:15:00.231Z,3.63
2018-06-02T06:17:11.383Z,4.40
2018-06-02T06:19:22.455Z,4.10
2018-06-02T06:21:33.682Z,3.40
2018-06-02T06:23:44.682Z,4.37
2018-06-02T06:25:55.794Z,3.93
2018-06-02T06:28:06.857Z,4.43
2018-06-02T06:30:17.927Z,3.63
2018-06-02T06:32:29.017Z,3.70
2018-06-02T06:34:40.423Z,3.73
2018-06-02T06:36:51.478Z,4.27
2018-06-02T06:39:02.732Z,3.27
2018-06-02T06:41:13.936Z,3.93
2018-06-02T06:43:25.036Z,3.77
2018-06-02T06:45:36.235Z,4.60
2018-06-02T06:47:47.351Z,3.47
2018-06-02T06:49:59.075Z,4.87
2018-06-02T06:52:10.258Z,4.23
2018-06-02T06:54:21.384Z,5.33
2018-06-02T06:56:32.450Z,4.43
2018-06-02T06:58:43.541Z,3.93
2018-06-02T07:00:54.610Z,4.20
2018-06-02T07:03:05.667Z,3.93
2018-06-02T07:05:16.775Z,3.77
2018-06-02T07:07:27.873Z,3.70
2018-06-02T07:09:38.966Z,3.73
2018-06-02T07:11:50.087Z,3.30
2018-06-02T07:14:01.167Z,2.90
2018-06-02T07:16:12.242Z,3.47
2018-06-02T07:18:23.289Z,3.37
2018-06-02T07:20:34.530Z,3.40
2018-06-02T07:22:45.641Z,3.37
2018-06-02T07:24:56.797Z,3.80
2018-06-02T07:27:07.891Z,3.43
2018-06-02T07:29:19.034Z,3.40
2018-06-02T07:31:30.324Z,3.67
2018-06-02T07:33:41.386Z,3.90
2018-06-02T07:35:52.512Z,4.13
2018-06-02T07:38:03.607Z,3.80
2018-06-02T07:40:14.699Z,3.00
2018-06-02T07:42:25.900Z,3.20
2018-06-02T07:44:36.977Z,3.70
2018-06-02T07:46:48.149Z,3.63
2018-06-02T07:48:59.222Z,3.10
2018-06-02T07:51:10.331Z,3.63
2018-06-02T07:53:21.431Z,3.63
2018-06-02T07:55:32.474Z,3.40
2018-06-02T07:57:43.629Z,3.10
2018-06-02T07:59:54.683Z,3.43
2018-06-02T08:02:05.789Z,3.50
2018-06-02T08:04:16.915Z,3.20
2018-06-02T08:06:28.111Z,2.93
2018-06-02T08:08:39.180Z,3.00
2018-06-02T08:10:50.251Z,3.00
2018-06-02T08:13:01.385Z,3.03
2018-06-02T08:15:12.508Z,4.03
2018-06-02T08:17:23.592Z,4.30
2018-06-02T08:19:34.782Z,3.47
2018-06-02T08:21:45.910Z,3.33
2018-06-02T08:23:57.010Z,3.50
2018-06-02T08:26:08.069Z,3.23
2018-06-02T08:28:19.208Z,3.07
2018-06-02T08:30:30.287Z,3.20
2018-06-02T08:32:41.439Z,3.17
2018-06-02T08:34:52.584Z,3.27
2018-06-02T08:37:03.653Z,4.40
2018-06-02T08:39:14.746Z,3.83
2018-06-02T08:41:25.800Z,3.17
2018-06-02T08:43:36.898Z,3.30
2018-06-02T08:45:47.976Z,3.60
2018-06-02T08:47:59.080Z,3.00
2018-06-02T08:50:10.219Z,3.40
2018-06-02T08:52:21.299Z,3.60
2018-06-02T08:54:32.460Z,3.40
2018-06-02T08:56:43.563Z,3.27
2018-06-02T08:58:54.703Z,3.07
2018-06-02T09:01:05.819Z,3.07
2018-06-02T09:03:16.890Z,3.20
2018-06-02T09:05:28.021Z,3.30
2018-06-02T09:07:39.043Z,3.53
2018-06-02T09:09:50.155Z,3.33
2018-06-02T09:12:02.604Z,3.40
2018-06-02T09:14:13.704Z,2.80
2018-06-02T09:16:24.802Z,3.90
2018-06-02T09:18:35.934Z,2.70
2018-06-02T09:20:47.013Z,3.20
2018-06-02T09:22:58.165Z,3.43
2018-06-02T09:25:09.336Z,3.33
2018-06-02T09:27:20.447Z,2.93
2018-06-02T09:29:31.522Z,2.77
2018-06-02T09:31:42.755Z,2.80
2018-06-02T09:33:53.803Z,2.50
2018-06-02T09:36:04.879Z,2.30
2018-06-02T09:38:16.134Z,2.00
2018-06-02T09:40:27.230Z,2.10
2018-06-02T09:42:38.315Z,2.20
2018-06-02T09:44:49.357Z,2.13
2018-06-02T09:47:00.510Z,2.17
2018-06-02T09:49:11.579Z,2.00
2018-06-02T09:51:22.678Z,2.13
2018-06-02T09:53:33.792Z,2.20
2018-06-02T09:55:44.885Z,1.90
2018-06-02T09:57:56.029Z,2.23
2018-06-02T10:00:07.130Z,1.90
2018-06-02T10:02:18.224Z,1.97
2018-06-02T10:04:29.306Z,2.00
2018-06-02T10:06:40.433Z,1.60
2018-06-02T10:08:51.522Z,2.20
2018-06-02T10:11:02.606Z,2.37
2018-06-02T10:13:13.694Z,2.07
2018-06-02T10:15:24.763Z,1.90
2018-06-02T10:17:35.830Z,2.33
2018-06-02T10:19:47.211Z,2.03
2018-06-02T10:21:58.323Z,2.17
2018-06-02T10:24:09.405Z,2.30
2018-06-02T10:26:20.510Z,1.90
2018-06-02T10:28:31.617Z,2.33
2018-06-02T10:30:42.711Z,2.17
2018-06-02T10:32:53.779Z,1.97
2018-06-02T10:35:04.881Z,2.10
2018-06-02T10:37:15.961Z,1.77
2018-06-02T10:39:27.115Z,1.60
2018-06-02T10:41:38.221Z,1.77
2018-06-02T10:43:49.418Z,2.00
2018-06-02T10:46:00.787Z,1.90
2018-06-02T10:48:11.843Z,2.03
2018-06-02T10:50:22.995Z,1.67
2018-06-02T10:52:34.058Z,2.27
2018-06-02T10:54:45.155Z,1.60
2018-06-02T10:56:56.247Z,2.23
2018-06-02T10:59:07.299Z,2.10
2018-06-02T11:01:18.423Z,2.23
2018-06-02T11:03:29.615Z,2.00
2018-06-02T11:05:40.746Z,1.90
2018-06-02T11:07:51.836Z,1.67
2018-06-02T11:10:03.015Z,1.80
2018-06-02T11:12:14.098Z,1.90
2018-06-02T11:14:25.190Z,2.13
2018-06-02T11:16:36.305Z,2.47
2018-06-02T11:18:47.395Z,2.00
2018-06-02T11:20:58.510Z,1.97
2018-06-02T11:23:09.691Z,2.07
2018-06-02T11:25:20.827Z,4.10
2018-06-02T11:27:31.905Z,2.20
2018-06-02T11:29:42.974Z,2.60
2018-06-02T11:31:54.067Z,2.13
2018-06-02T11:34:05.181Z,2.00
2018-06-02T11:36:16.291Z,2.13
2018-06-02T11:38:27.390Z,2.37
2018-06-02T11:40:38.571Z,2.57
2018-06-02T11:42:49.686Z,2.30
2018-06-02T11:45:00.746Z,2.40
2018-06-02T11:47:11.816Z,2.30
2018-06-02T11:49:22.913Z,2.37
2018-06-02T11:51:33.978Z,2.30
2018-06-02T11:53:45.336Z,2.53
2018-06-02T11:55:56.412Z,2.40
2018-06-02T11:58:07.551Z,2.37
2018-06-02T12:00:18.717Z,2.57
2018-06-02T12:02:29.831Z,2.37
2018-06-02T12:04:40.964Z,2.50
2018-06-02T12:06:52.089Z,2.90
2018-06-02T12:09:04.160Z,2.63
2018-06-02T12:11:15.596Z,2.37
2018-06-02T12:13:26.807Z,2.37
2018-06-02T12:15:37.963Z,2.60
2018-06-02T12:17:49.053Z,2.83
2018-06-02T12:20:00.195Z,2.70
2018-06-02T12:22:11.395Z,2.30
2018-06-02T12:24:22.482Z,2.57
2018-06-02T12:26:33.563Z,2.53
2018-06-02T12:28:44.662Z,2.43
2018-06-02T12:30:55.767Z,2.40
2018-06-02T12:33:07.044Z,2.50
2018-06-02T12:35:18.151Z,2.60
2018-06-02T12:37:29.302Z,2.33
2018-06-02T12:39:40.436Z,2.40
2018-06-02T12:41:51.603Z,2.50
2018-06-02T12:44:02.760Z,2.10
2018-06-02T12:46:13.844Z,2.00
2018-06-02T12:48:24.932Z,1.90
2018-06-02T12:50:36.065Z,2.30
2018-06-02T12:52:47.256Z,2.00
2018-06-02T12:54:58.410Z,2.20
2018-06-02T12:57:09.579Z,2.10
2018-06-02T12:59:20.703Z,2.10
2018-06-02T13:01:31.859Z,2.20
2018-06-02T13:03:42.958Z,2.13
2018-06-02T13:05:54.047Z,2.40
2018-06-02T13:08:05.198Z,2.17
2018-06-02T13:10:16.295Z,2.00
2018-06-02T13:12:27.423Z,1.90
2018-06-02T13:14:38.642Z,1.90
2018-06-02T13:16:49.770Z,2.40
2018-06-02T13:19:00.887Z,2.23
2018-06-02T13:21:12.027Z,2.40
2018-06-02T13:23:23.075Z,2.07
2018-06-02T13:25:34.135Z,2.07
2018-06-02T13:27:45.232Z,2.17
2018-06-02T13:29:56.313Z,2.00
2018-06-02T13:32:07.480Z,2.10
2018-06-02T13:34:18.550Z,2.53
2018-06-02T13:36:29.705Z,2.07
2018-06-02T13:38:40.782Z,2.47
2018-06-02T13:40:51.858Z,2.60
2018-06-02T13:43:02.990Z,2.60
2018-06-02T13:45:14.078Z,2.63
2018-06-02T13:47:25.174Z,2.50
2018-06-02T13:49:36.273Z,2.90
2018-06-02T13:51:47.379Z,2.37
2018-06-02T13:53:58.451Z,2.67
2018-06-02T13:56:09.606Z,2.60
2018-06-02T13:58:20.709Z,2.90
2018-06-02T14:00:31.828Z,2.53
2018-06-02T14:02:42.945Z,2.30
2018-06-02T14:04:54.014Z,2.43
2018-06-02T14:07:05.079Z,2.40
2018-06-02T14:09:16.179Z,2.37
2018-06-02T14:11:27.275Z,2.27
2018-06-02T14:13:38.427Z,2.33
2018-06-02T14:15:49.662Z,2.17
2018-06-02T14:18:00.835Z,2.47
2018-06-02T14:20:11.914Z,1.90
2018-06-02T14:22:22.974Z,2.37
2018-06-02T14:24:34.052Z,2.70
2018-06-02T14:26:45.163Z,2.73
2018-06-02T14:28:56.370Z,2.60
2018-06-02T14:31:07.462Z,2.60
2018-06-02T14:33:18.523Z,2.40
2018-06-02T14:35:29.763Z,2.83
2018-06-02T14:37:40.920Z,2.60
2018-06-02T14:39:52.039Z,2.47
2018-06-02T14:42:03.138Z,3.10
2018-06-02T14:44:14.234Z,2.63
2018-06-02T14:46:25.493Z,2.40
2018-06-02T14:48:36.595Z,2.33
2018-06-02T14:50:47.674Z,2.60
2018-06-02T14:52:58.792Z,2.33
2018-06-02T14:55:09.970Z,2.50
2018-06-02T14:57:21.268Z,2.20
2018-06-02T14:59:32.330Z,2.90
2018-06-02T15:01:43.495Z,2.90
2018-06-02T15:03:54.621Z,3.27
2018-06-02T15:06:05.712Z,2.73
2018-06-02T15:08:16.811Z,3.13
2018-06-02T15:10:27.970Z,3.00
2018-06-02T15:12:39.042Z,2.83
2018-06-02T15:14:50.198Z,2.93
2018-06-02T15:17:01.301Z,2.47
2018-06-02T15:19:12.422Z,3.00
2018-06-02T15:21:23.624Z,2.97
2018-06-02T15:23:34.699Z,2.80
2018-06-02T15:25:45.938Z,3.17
2018-06-02T15:27:57.066Z,2.70
2018-06-02T15:30:08.209Z,2.80
2018-06-02T15:32:19.427Z,3.10
2018-06-02T15:34:30.538Z,3.07
2018-06-02T15:36:41.683Z,2.90
2018-06-02T15:38:52.783Z,2.50
2018-06-02T15:41:03.886Z,3.00
2018-06-02T15:43:15.027Z,2.37
2018-06-02T15:45:26.119Z,2.47
2018-06-02T15:47:37.204Z,2.43
2018-06-02T15:49:48.343Z,2.33
2018-06-02T15:51:59.483Z,2.70
2018-06-02T15:54:10.571Z,2.97
2018-06-02T15:56:21.834Z,3.10
2018-06-02T15:58:32.955Z,2.17
2018-06-02T16:00:44.150Z,2.50
2018-06-02T16:02:55.219Z,2.30
2018-06-02T16:05:06.306Z,2.30
2018-06-02T16:07:17.386Z,2.73
2018-06-02T16:09:28.496Z,2.37
2018-06-02T16:11:39.690Z,2.63
2018-06-02T16:13:50.762Z,3.00
2018-06-02T16:16:01.972Z,3.17
2018-06-02T16:18:13.062Z,3.80
2018-06-02T16:20:24.251Z,3.00
2018-06-02T16:22:35.325Z,2.90
2018-06-02T16:24:46.455Z,2.80
2018-06-02T16:26:57.539Z,2.93
2018-06-02T16:29:08.616Z,2.60
2018-06-02T16:31:19.703Z,2.90
2018-06-02T16:33:30.778Z,2.30
2018-06-02T16:35:41.987Z,2.33
2018-06-02T16:37:53.064Z,2.30
2018-06-02T16:40:04.165Z,2.43
2018-06-02T16:42:15.270Z,2.80
2018-06-02T16:44:26.343Z,2.73
2018-06-02T16:46:37.439Z,3.03
2018-06-02T16:48:48.715Z,2.30
2018-06-02T16:50:59.990Z,2.47
2018-06-02T16:53:11.099Z,2.60
2018-06-02T16:55:22.255Z,2.43
2018-06-02T16:57:33.403Z,2.57
2018-06-02T16:59:44.569Z,2.70
2018-06-02T17:01:55.678Z,2.83
2018-06-02T17:04:06.815Z,3.40
2018-06-02T17:06:18.006Z,2.87
2018-06-02T17:08:29.110Z,2.90
2018-06-02T17:10:40.341Z,3.00
2018-06-02T17:12:51.435Z,2.40
2018-06-02T17:15:02.545Z,2.80
2018-06-02T17:17:13.598Z,3.07
2018-06-02T17:19:24.737Z,2.40
2018-06-02T17:21:35.866Z,2.30
2018-06-02T17:23:46.975Z,2.70
2018-06-02T17:25:58.124Z,2.60
2018-06-02T17:28:09.242Z,2.90
2018-06-02T17:30:20.356Z,2.97
2018-06-02T17:32:31.442Z,2.80
2018-06-02T17:34:42.526Z,3.00
2018-06-02T17:36:53.606Z,2.43
2018-06-02T17:39:04.889Z,2.70
2018-06-02T17:41:16.100Z,3.20
2018-06-02T17:43:27.199Z,2.70
2018-06-02T17:45:38.271Z,2.73
2018-06-02T17:47:49.346Z,2.90
2018-06-02T17:50:00.462Z,3.20
2018-06-02T17:52:11.539Z,3.27
2018-06-02T17:54:22.657Z,3.27
2018-06-02T17:56:33.767Z,3.40
2018-06-02T17:58:44.866Z,3.00
2018-06-02T18:00:56.126Z,3.50
2018-06-02T18:03:07.226Z,3.33
2018-06-02T18:05:18.352Z,3.00
2018-06-02T18:07:29.427Z,3.50
2018-06-02T18:09:40.540Z,3.60
2018-06-02T18:11:51.642Z,3.40
2018-06-02T18:14:02.791Z,3.27
2018-06-02T18:16:13.919Z,2.97
2018-06-02T18:18:25.038Z,3.33
2018-06-02T18:20:36.126Z,2.57
2018-06-02T18:22:47.235Z,3.40
2018-06-02T18:24:58.307Z,3.17
2018-06-02T18:27:09.423Z,3.07
2018-06-02T18:29:20.556Z,3.30
2018-06-02T18:31:31.670Z,3.30
2018-06-02T18:33:42.823Z,3.27
2018-06-02T18:35:53.911Z,3.40
2018-06-02T18:38:04.996Z,3.30
2018-06-02T18:40:16.081Z,3.30
2018-06-02T18:42:27.214Z,3.40
2018-06-02T18:44:38.312Z,3.57
2018-06-02T18:46:49.446Z,3.37
2018-06-02T18:49:00.595Z,3.17
2018-06-02T18:51:11.695Z,3.40
2018-06-02T18:53:22.890Z,3.60
2018-06-02T18:55:33.988Z,3.03
2018-06-02T18:57:45.094Z,3.93
2018-06-02T18:59:56.241Z,3.70
2018-06-02T19:02:07.359Z,3.50
2018-06-02T19:04:18.454Z,3.10
2018-06-02T19:06:29.544Z,3.30
2018-06-02T19:08:40.722Z,3.63
2018-06-02T19:10:51.806Z,3.03
2018-06-02T19:13:02.987Z,3.83
2018-06-02T19:15:14.095Z,3.80
2018-06-02T19:17:25.189Z,3.47
2018-06-02T19:19:36.334Z,4.10
2018-06-02T19:21:47.431Z,3.80
2018-06-02T19:23:58.595Z,4.03
2018-06-02T19:26:09.681Z,3.63
2018-06-02T19:28:20.950Z,4.17
2018-06-02T19:30:32.146Z,3.97
2018-06-02T19:32:43.257Z,4.00
2018-06-02T19:34:54.363Z,4.37
2018-06-02T19:37:05.539Z,4.10
2018-06-02T19:39:16.623Z,4.10
2018-06-02T19:41:27.713Z,4.07
2018-06-02T19:43:38.794Z,4.37
2018-06-02T19:45:49.887Z,4.07
2018-06-02T19:48:01.124Z,4.27
2018-06-02T19:50:12.231Z,3.80
2018-06-02T19:52:23.346Z,3.70
2018-06-02T19:54:34.417Z,4.67
2018-06-02T19:56:45.522Z,4.10
2018-06-02T19:58:56.630Z,4.73
2018-06-02T20:01:07.760Z,4.13
2018-06-02T20:03:18.903Z,4.47
2018-06-02T20:05:30.033Z,4.93
2018-06-02T20:07:41.241Z,5.53
2018-06-02T20:09:52.350Z,6.60
2018-06-02T20:12:03.711Z,6.87
2018-06-02T20:14:14.912Z,7.10
2018-06-02T20:16:26.051Z,5.33
2018-06-02T20:18:37.266Z,5.53
2018-06-02T20:20:48.415Z,5.50
2018-06-02T20:22:59.558Z,4.70
2018-06-02T20:25:10.607Z,5.07
2018-06-02T20:27:21.734Z,4.50
2018-06-02T20:29:32.835Z,4.73
2018-06-02T20:31:43.985Z,4.60
2018-06-02T20:33:55.233Z,4.70
2018-06-02T20:36:06.387Z,4.77
2018-06-02T20:38:17.590Z,4.70
2018-06-02T20:40:28.719Z,4.40
2018-06-02T20:42:39.842Z,4.57
2018-06-02T20:44:50.934Z,4.50
2018-06-02T20:47:02.061Z,4.50
2018-06-02T20:49:13.219Z,4.47
2018-06-02T20:51:24.281Z,4.70
2018-06-02T20:53:35.476Z,3.90
2018-06-02T20:55:46.638Z,4.60
2018-06-02T20:57:57.874Z,4.67
2018-06-02T21:00:08.955Z,5.07
2018-06-02T21:02:20.015Z,4.63
2018-06-02T21:04:31.141Z,4.30
2018-06-02T21:06:42.224Z,4.83
2018-06-02T21:08:53.338Z,4.50
2018-06-02T21:11:04.450Z,5.07
2018-06-02T21:13:15.570Z,5.07
2018-06-02T21:15:26.799Z,5.53
2018-06-02T21:17:37.917Z,5.40
2018-06-02T21:19:49.107Z,4.97
2018-06-02T21:22:00.199Z,5.00
2018-06-02T21:24:11.320Z,4.83
2018-06-02T21:26:22.394Z,5.37
2018-06-02T21:28:33.438Z,4.67
2018-06-02T21:30:44.631Z,4.43
2018-06-02T21:32:55.722Z,4.97
2018-06-02T21:35:06.861Z,5.30
2018-06-02T21:37:17.933Z,5.57
2018-06-02T21:39:29.063Z,6.07
2018-06-02T21:41:40.242Z,5.33
2018-06-02T21:43:51.280Z,5.10
2018-06-02T21:46:02.405Z,5.20
2018-06-02T21:48:13.474Z,5.60
2018-06-02T21:50:24.687Z,4.43
2018-06-02T21:52:35.830Z,5.10
2018-06-02T21:54:46.947Z,5.13
2018-06-02T21:56:58.021Z,4.37
2018-06-02T21:59:09.135Z,4.93
2018-06-02T22:01:20.284Z,4.97
2018-06-02T22:03:31.364Z,4.80
2018-06-02T22:05:42.462Z,5.07
2018-06-02T22:07:53.511Z,4.87
2018-06-02T22:10:04.635Z,5.37
2018-06-02T22:12:15.918Z,5.10
2018-06-02T22:14:27.154Z,5.27
2018-06-02T22:16:38.262Z,5.47
2018-06-02T22:18:49.386Z,5.40
2018-06-02T22:21:00.497Z,5.63
2018-06-02T22:23:11.667Z,5.20
2018-06-02T22:25:22.754Z,4.63
2018-06-02T22:27:33.848Z,4.93
2018-06-02T22:29:45.051Z,4.53
2018-06-02T22:31:56.143Z,4.93
2018-06-02T22:34:07.318Z,4.67
2018-06-02T22:36:18.382Z,4.30
2018-06-02T22:38:29.544Z,4.77
2018-06-02T22:40:40.632Z,5.27
2018-06-02T22:42:51.758Z,5.10
2018-06-02T22:45:02.856Z,4.50
2018-06-02T22:47:13.944Z,5.10
2018-06-02T22:49:24.994Z,5.20
2018-06-02T22:51:48.284Z,5.27
2018-06-02T22:53:59.443Z,5.13
2018-06-02T22:56:10.595Z,5.30
2018-06-02T22:58:21.697Z,5.37
2018-06-02T23:00:32.904Z,5.80
2018-06-02T23:02:44.028Z,5.00
2018-06-02T23:04:55.287Z,5.37
2018-06-02T23:07:06.365Z,5.00
2018-06-02T23:09:17.583Z,5.53
2018-06-02T23:11:28.656Z,5.30
2018-06-02T23:13:39.810Z,5.03
2018-06-02T23:15:50.883Z,5.40
2018-06-02T23:18:02.002Z,5.10
2018-06-02T23:20:13.174Z,5.07
2018-06-02T23:22:36.529Z,4.53
2018-06-02T23:24:47.668Z,5.07
2018-06-02T23:26:58.778Z,4.67
2018-06-02T23:29:09.926Z,5.20
2018-06-02T23:31:21.056Z,5.20
2018-06-02T23:33:32.183Z,5.90
2018-06-02T23:35:43.263Z,5.67
2018-06-02T23:37:54.436Z,6.10
2018-06-02T23:40:05.512Z,5.50
2018-06-02T23:42:16.575Z,5.77
2018-06-02T23:44:27.733Z,5.90
2018-06-02T23:46:38.851Z,5.67
2018-06-02T23:48:50.071Z,5.73
2018-06-02T23:51:01.268Z,6.27
2018-06-02T23:53:12.367Z,5.77
2018-06-02T23:55:23.481Z,5.70
2018-06-02T23:57:34.545Z,5.90
2018-06-02T23:59:45.657Z,6.17
